Time;durP1;ratioP1;P1;durP2;ratioP2;P2;SDS_P1;SDS_P2;PMS_P1;PMS_P2;Temp;Humidity;BMP_temperature;BMP_pressure;BME280_temperature;BME280_humidity;BME280_pressure;Samples;Min_cycle;Max_cycle;Signal;HPM_P1;HPM_P2
2023/01/03 00:01:51;;;;;;;;;;;8.40;99.90;;;;;;5043481;28;19909;-78
2023/01/03 00:04:17;;;;;;;;;;;8.60;99.90;;;;;;5048772;28;19921;-78
2023/01/03 00:06:47;;;;;;;;;;;8.60;99.90;;;;;;5062831;28;19909;-77
2023/01/03 00:09:13;;;;;;;;;;;8.50;99.90;;;;;;5064117;28;19924;-79
2023/01/03 00:14:25;;;;;;;;;;;8.60;99.90;;;;;;5053365;28;19919;-77
2023/01/03 00:16:51;;;;;;;;;;;8.60;99.90;;;;;;5059241;28;20006;-76
2023/01/03 00:19:17;;;;;;;;;;;8.50;99.90;;;;;;5059613;28;19919;-77
2023/01/03 00:21:42;;;;;;;;;;;8.50;99.90;;;;;;5054386;28;19984;-77
2023/01/03 00:24:09;;;;;;;;;;;8.50;99.90;;;;;;5054559;28;20129;-77
2023/01/03 00:26:34;;;;;;;;;;;8.60;99.90;;;;;;5064397;28;19947;-75
2023/01/03 00:29:00;;;;;;;;;;;8.50;99.90;;;;;;5055864;28;20411;-75
2023/01/03 00:31:25;;;;;;;;;;;8.70;99.90;;;;;;5063264;28;19958;-77
2023/01/03 00:33:51;;;;;;;;;;;8.60;99.90;;;;;;5061490;28;19905;-77
2023/01/03 00:36:17;;;;;;;;;;;8.50;99.90;;;;;;5056414;28;20292;-77
2023/01/03 00:38:42;;;;;;;;;;;8.40;99.90;;;;;;5050582;28;19913;-77
2023/01/03 00:41:09;;;;;;;;;;;8.40;99.90;;;;;;5047560;28;19920;-77
2023/01/03 00:43:35;;;;;;;;;;;8.40;99.90;;;;;;5038519;28;19913;-77
2023/01/03 00:46:00;;;;;;;;;;;8.30;99.90;;;;;;5041006;28;19913;-77
2023/01/03 00:48:26;;;;;;;;;;;8.20;99.90;;;;;;5040073;28;19970;-78
2023/01/03 00:50:52;;;;;;;;;;;8.20;99.90;;;;;;5039416;28;19913;-76
2023/01/03 00:53:18;;;;;;;;;;;8.10;99.90;;;;;;5052080;28;20046;-77
2023/01/03 00:55:44;;;;;;;;;;;8.00;99.90;;;;;;5042946;28;19909;-76
2023/01/03 00:58:09;;;;;;;;;;;7.90;99.90;;;;;;5043083;28;19916;-76
2023/01/03 01:00:35;;;;;;;;;;;8.10;99.90;;;;;;5043050;28;19919;-77
2023/01/03 01:03:00;;;;;;;;;;;8.00;99.90;;;;;;5033812;28;20294;-75
2023/01/03 01:05:27;;;;;;;;;;;8.10;99.90;;;;;;5041596;28;19912;-77
2023/01/03 01:07:52;;;;;;;;;;;8.20;99.90;;;;;;5040283;28;19999;-74
2023/01/03 01:10:19;;;;;;;;;;;8.10;99.90;;;;;;5032431;28;20287;-76
2023/01/03 01:12:45;;;;;;;;;;;8.00;99.90;;;;;;5032840;28;19917;-77
2023/01/03 01:15:11;;;;;;;;;;;7.90;99.90;;;;;;5040087;28;20051;-76
2023/01/03 01:17:37;;;;;;;;;;;7.90;99.90;;;;;;5045445;28;19982;-76
2023/01/03 01:20:03;;;;;;;;;;;7.80;99.90;;;;;;5053522;28;19936;-75
2023/01/03 01:22:28;;;;;;;;;;;7.70;99.90;;;;;;5033641;28;19924;-77
2023/01/03 01:24:54;;;;;;;;;;;7.70;99.90;;;;;;5042030;28;19948;-76
2023/01/03 01:27:19;;;;;;;;;;;7.60;99.90;;;;;;5047141;28;19912;-76
2023/01/03 01:29:45;;;;;;;;;;;7.60;99.90;;;;;;5047949;28;19940;-76
2023/01/03 01:32:10;;;;;;;;;;;7.50;99.90;;;;;;5039771;28;19967;-77
2023/01/03 01:34:36;;;;;;;;;;;7.50;99.90;;;;;;5044331;28;19912;-76
2023/01/03 01:37:01;;;;;;;;;;;7.40;99.90;;;;;;5037185;28;21367;-77
2023/01/03 01:39:28;;;;;;;;;;;7.40;99.90;;;;;;5037410;28;19913;-76
2023/01/03 01:44:40;;;;;;;;;;;7.10;99.90;;;;;;5045565;28;19979;-76
2023/01/03 01:47:12;;;;;;;;;;;7.20;99.90;;;;;;5043883;28;19917;-76
2023/01/03 01:49:37;;;;;;;;;;;7.30;99.90;;;;;;5042134;28;20015;-75
2023/01/03 01:52:03;;;;;;;;;;;7.10;99.90;;;;;;5038190;28;19996;-75
2023/01/03 01:54:28;;;;;;;;;;;7.00;99.90;;;;;;5043417;28;20310;-76
2023/01/03 01:56:54;;;;;;;;;;;7.00;99.90;;;;;;5034281;28;19912;-76
2023/01/03 01:59:19;;;;;;;;;;;7.00;99.90;;;;;;5036884;28;20623;-75
2023/01/03 02:01:46;;;;;;;;;;;7.00;99.90;;;;;;5032676;28;19909;-76
2023/01/03 02:04:15;;;;;;;;;;;7.00;99.90;;;;;;5037927;28;19979;-77
2023/01/03 02:06:42;;;;;;;;;;;7.00;99.90;;;;;;5044264;28;20454;-77
2023/01/03 02:09:07;;;;;;;;;;;7.10;99.90;;;;;;5036669;28;20026;-77
2023/01/03 02:11:36;;;;;;;;;;;7.00;99.90;;;;;;5033463;28;19945;-77
2023/01/03 02:14:20;;;;;;;;;;;7.00;99.90;;;;;;5033034;28;19923;-75
2023/01/03 02:16:55;;;;;;;;;;;6.80;99.90;;;;;;5036585;28;20543;-76
2023/01/03 02:19:20;;;;;;;;;;;6.90;99.90;;;;;;5033207;28;19909;-76
2023/01/03 02:21:56;;;;;;;;;;;6.90;99.90;;;;;;5033629;28;19915;-77
2023/01/03 02:24:36;;;;;;;;;;;6.80;99.90;;;;;;5025842;28;20059;-78
2023/01/03 02:27:21;;;;;;;;;;;6.90;99.90;;;;;;5036602;28;19916;-76
2023/01/03 02:30:05;;;;;;;;;;;6.80;99.90;;;;;;5036086;28;19916;-76
2023/01/03 02:32:36;;;;;;;;;;;6.70;99.90;;;;;;5043032;28;20493;-76
2023/01/03 02:35:12;;;;;;;;;;;6.70;99.90;;;;;;5034795;28;20299;-75
2023/01/03 02:37:48;;;;;;;;;;;6.80;99.90;;;;;;5038053;28;19913;-76
2023/01/03 02:40:31;;;;;;;;;;;6.80;99.90;;;;;;5042946;28;19916;-76
2023/01/03 02:43:01;;;;;;;;;;;6.70;99.90;;;;;;5032936;28;19959;-75
2023/01/03 02:45:34;;;;;;;;;;;6.40;99.90;;;;;;5035842;28;19921;-77
2023/01/03 02:48:06;;;;;;;;;;;6.30;99.90;;;;;;5037712;28;20311;-76
2023/01/03 02:50:37;;;;;;;;;;;6.40;99.90;;;;;;5035382;28;20437;-76
2023/01/03 02:53:07;;;;;;;;;;;6.40;99.90;;;;;;5041956;28;19912;-76
2023/01/03 02:55:33;;;;;;;;;;;6.20;99.90;;;;;;5047448;28;19967;-75
2023/01/03 02:58:04;;;;;;;;;;;6.30;99.90;;;;;;5039206;28;20488;-75
2023/01/03 03:00:31;;;;;;;;;;;6.40;99.90;;;;;;5043075;28;19913;-77
2023/01/03 03:02:59;;;;;;;;;;;6.50;99.90;;;;;;5055062;28;20418;-76
2023/01/03 03:05:28;;;;;;;;;;;6.30;99.90;;;;;;5051421;28;19968;-78
2023/01/03 03:07:53;;;;;;;;;;;6.40;99.90;;;;;;5049314;28;19924;-75
2023/01/03 03:13:22;;;;;;;;;;;6.30;99.90;;;;;;5042888;28;20325;-77
2023/01/03 03:15:55;;;;;;;;;;;6.20;99.90;;;;;;5043333;28;19987;-77
2023/01/03 03:18:29;;;;;;;;;;;6.10;99.90;;;;;;5037570;28;19916;-76
2023/01/03 03:26:29;;;;;;;;;;;6.20;99.90;;;;;;5046590;28;20012;-76
2023/01/03 03:28:57;;;;;;;;;;;6.10;99.90;;;;;;5056164;28;19917;-76
2023/01/03 03:31:32;;;;;;;;;;;6.10;99.90;;;;;;5067597;28;19909;-77
2023/01/03 03:34:06;;;;;;;;;;;6.30;99.90;;;;;;5057798;28;19924;-76
2023/01/03 03:36:58;;;;;;;;;;;6.30;99.90;;;;;;5065915;28;19909;-77
2023/01/03 03:45:15;;;;;;;;;;;6.10;99.90;;;;;;5064497;28;19944;-75
2023/01/03 03:47:49;;;;;;;;;;;6.20;99.90;;;;;;5060617;28;19935;-77
2023/01/03 03:50:38;;;;;;;;;;;6.20;99.90;;;;;;5060952;28;19916;-76
2023/01/03 03:53:05;;;;;;;;;;;6.20;99.90;;;;;;5036136;28;19909;-75
2023/01/03 03:55:34;;;;;;;;;;;6.10;99.90;;;;;;5049187;28;20646;-75
2023/01/03 03:58:12;;;;;;;;;;;6.20;99.90;;;;;;5046776;28;19962;-76
2023/01/03 04:00:39;;;;;;;;;;;6.20;99.90;;;;;;5044993;28;19913;-77
2023/01/03 04:03:05;;;;;;;;;;;6.20;99.90;;;;;;5041100;28;20332;-76
2023/01/03 04:05:33;;;;;;;;;;;6.20;99.90;;;;;;5049076;28;19924;-76
2023/01/03 04:07:58;;;;;;;;;;;6.00;99.90;;;;;;5044039;28;20568;-77
2023/01/03 04:10:24;;;;;;;;;;;5.90;99.90;;;;;;5047379;28;19909;-76
2023/01/03 04:12:50;;;;;;;;;;;6.00;99.90;;;;;;5047618;28;19987;-76
2023/01/03 04:15:16;;;;;;;;;;;5.90;99.90;;;;;;5042303;28;19916;-77
2023/01/03 04:17:42;;;;;;;;;;;6.00;99.90;;;;;;5038279;28;19913;-76
2023/01/03 04:20:08;;;;;;;;;;;5.80;99.90;;;;;;5043185;28;20425;-76
2023/01/03 04:22:33;;;;;;;;;;;6.00;99.90;;;;;;5034137;28;19917;-77
2023/01/03 04:24:59;;;;;;;;;;;6.00;99.90;;;;;;5031914;28;19970;-75
2023/01/03 04:27:24;;;;;;;;;;;6.00;99.90;;;;;;5042334;28;19913;-75
2023/01/03 04:29:50;;;;;;;;;;;5.70;99.90;;;;;;5044585;28;19916;-76
2023/01/03 04:32:15;;;;;;;;;;;5.80;99.90;;;;;;5047021;28;19920;-77
2023/01/03 04:34:41;;;;;;;;;;;5.90;99.90;;;;;;5037603;28;20401;-77
2023/01/03 04:37:06;;;;;;;;;;;5.80;99.90;;;;;;5034005;28;19920;-76
2023/01/03 04:39:32;;;;;;;;;;;5.90;99.90;;;;;;5047747;28;19931;-76
2023/01/03 04:42:00;;;;;;;;;;;5.90;99.90;;;;;;5036952;28;19920;-75
2023/01/03 04:44:26;;;;;;;;;;;5.90;99.90;;;;;;5048023;28;19909;-76
2023/01/03 04:46:51;;;;;;;;;;;6.20;99.90;;;;;;5042585;28;19909;-76
2023/01/03 04:49:17;;;;;;;;;;;6.00;99.90;;;;;;5041083;28;20008;-76
2023/01/03 04:51:42;;;;;;;;;;;6.00;99.90;;;;;;5039571;28;20554;-76
2023/01/03 04:54:08;;;;;;;;;;;6.20;99.90;;;;;;5037822;28;20128;-76
2023/01/03 04:56:35;;;;;;;;;;;6.10;99.90;;;;;;5042647;28;19909;-75
2023/01/03 04:59:00;;;;;;;;;;;6.10;99.90;;;;;;5045056;28;20438;-75
2023/01/03 05:01:26;;;;;;;;;;;6.30;99.90;;;;;;5032456;28;20015;-75
2023/01/03 05:03:55;;;;;;;;;;;6.10;99.90;;;;;;5044673;28;20010;-76
2023/01/03 05:06:21;;;;;;;;;;;6.20;99.90;;;;;;5035867;28;19948;-76
2023/01/03 05:08:46;;;;;;;;;;;6.30;99.90;;;;;;5042426;28;19917;-77
2023/01/03 05:11:12;;;;;;;;;;;6.30;99.90;;;;;;5049438;28;19920;-77
2023/01/03 05:13:38;;;;;;;;;;;6.30;99.90;;;;;;5049023;28;19917;-77
2023/01/03 05:16:06;;;;;;;;;;;6.30;99.90;;;;;;5046573;28;20333;-77
2023/01/03 05:18:32;;;;;;;;;;;6.50;99.90;;;;;;5044090;28;19908;-76
2023/01/03 05:26:31;;;;;;;;;;;6.60;99.90;;;;;;5044637;28;19920;-76
2023/01/03 05:28:57;;;;;;;;;;;6.50;99.90;;;;;;5049857;28;19925;-75
2023/01/03 05:31:22;;;;;;;;;;;6.70;99.90;;;;;;5043160;28;19913;-76
2023/01/03 05:33:48;;;;;;;;;;;6.90;99.90;;;;;;5041934;28;20406;-77
2023/01/03 05:36:13;;;;;;;;;;;6.70;99.90;;;;;;5038219;28;19913;-76
2023/01/03 05:38:39;;;;;;;;;;;7.00;99.90;;;;;;5040103;28;19958;-77
2023/01/03 05:41:05;;;;;;;;;;;6.90;99.90;;;;;;5048326;28;19912;-77
2023/01/03 05:43:30;;;;;;;;;;;6.80;99.90;;;;;;5043331;28;19913;-76
2023/01/03 05:45:56;;;;;;;;;;;7.00;99.90;;;;;;5051072;28;19910;-76
2023/01/03 05:48:21;;;;;;;;;;;7.10;99.90;;;;;;5053695;28;19990;-77
2023/01/03 05:50:48;;;;;;;;;;;7.00;99.90;;;;;;5045835;28;20077;-77
2023/01/03 05:53:14;;;;;;;;;;;7.10;99.90;;;;;;5042453;28;19928;-77
2023/01/03 05:55:39;;;;;;;;;;;7.20;99.90;;;;;;5041483;28;20344;-76
2023/01/03 05:58:05;;;;;;;;;;;7.30;99.90;;;;;;5041276;28;19913;-75
2023/01/03 06:00:31;;;;;;;;;;;7.40;99.90;;;;;;5037851;28;20003;-76
2023/01/03 06:02:56;;;;;;;;;;;7.50;99.90;;;;;;5048121;28;19958;-76
2023/01/03 06:05:22;;;;;;;;;;;7.40;99.90;;;;;;5041312;28;19932;-76
2023/01/03 06:07:47;;;;;;;;;;;7.40;99.90;;;;;;5046023;28;19979;-77
2023/01/03 06:10:13;;;;;;;;;;;7.50;99.90;;;;;;5043336;28;19928;-76
2023/01/03 06:12:38;;;;;;;;;;;7.50;99.90;;;;;;5041428;28;19960;-77
2023/01/03 06:15:04;;;;;;;;;;;7.30;99.90;;;;;;5043875;28;19916;-76
2023/01/03 06:20:14;;;;;;;;;;;7.50;99.90;;;;;;5060160;28;19984;-77
2023/01/03 06:22:39;;;;;;;;;;;7.60;99.90;;;;;;5045177;28;19970;-77
2023/01/03 06:25:05;;;;;;;;;;;7.60;99.90;;;;;;5046255;28;19974;-77
2023/01/03 06:27:30;;;;;;;;;;;7.60;99.90;;;;;;5042662;28;20025;-75
2023/01/03 06:29:56;;;;;;;;;;;7.70;99.90;;;;;;5057637;28;19952;-77
2023/01/03 06:32:21;;;;;;;;;;;7.60;99.90;;;;;;5059160;28;19908;-77
2023/01/03 06:34:47;;;;;;;;;;;7.60;99.90;;;;;;5056974;28;19964;-76
2023/01/03 06:37:12;;;;;;;;;;;7.70;99.90;;;;;;5067744;28;19932;-77
2023/01/03 06:39:38;;;;;;;;;;;7.80;99.90;;;;;;5066531;28;19920;-77
2023/01/03 06:53:10;;;;;;;;;;;7.90;99.90;;;;;;5057583;28;20411;-76
2023/01/03 06:53:11;;;;;;;;;;;8.00;99.90;;;;;;5055195;28;19954;-76
2023/01/03 06:55:36;;;;;;;;;;;7.90;99.90;;;;;;5048596;28;19987;-77
2023/01/03 06:58:01;;;;;;;;;;;8.10;99.90;;;;;;5040974;28;19995;-76
2023/01/03 07:00:27;;;;;;;;;;;8.10;99.90;;;;;;5050974;28;20329;-76
2023/01/03 07:02:53;;;;;;;;;;;8.00;99.90;;;;;;5050101;28;19920;-77
2023/01/03 07:05:18;;;;;;;;;;;8.20;99.90;;;;;;5048347;28;19998;-78
2023/01/03 07:07:43;;;;;;;;;;;8.10;99.90;;;;;;5056910;28;19913;-75
2023/01/03 07:10:09;;;;;;;;;;;8.20;99.90;;;;;;5049157;28;19921;-76
2023/01/03 07:15:18;;;;;;;;;;;8.00;99.90;;;;;;5049595;28;20592;-76
2023/01/03 07:17:44;;;;;;;;;;;8.00;99.90;;;;;;5040971;28;19913;-76
2023/01/03 07:20:09;;;;;;;;;;;7.70;99.90;;;;;;5043447;28;20063;-77
2023/01/03 07:22:35;;;;;;;;;;;7.80;99.90;;;;;;5041114;28;19909;-76
2023/01/03 07:25:00;;;;;;;;;;;7.90;99.90;;;;;;5037332;28;20282;-75
2023/01/03 07:27:26;;;;;;;;;;;7.90;99.90;;;;;;5047990;28;19946;-77
2023/01/03 07:29:51;;;;;;;;;;;7.90;99.90;;;;;;5045984;28;19909;-76
2023/01/03 07:32:17;;;;;;;;;;;7.70;99.90;;;;;;5047572;28;20448;-76
2023/01/03 07:34:42;;;;;;;;;;;8.00;99.90;;;;;;5046240;28;19948;-77
2023/01/03 07:37:08;;;;;;;;;;;8.10;99.90;;;;;;5045142;28;19909;-76
2023/01/03 07:39:33;;;;;;;;;;;8.00;99.90;;;;;;5048850;28;19909;-77
2023/01/03 07:44:43;;;;;;;;;;;8.10;99.90;;;;;;5040451;28;19978;-75
2023/01/03 07:47:08;;;;;;;;;;;8.10;99.90;;;;;;5043922;28;20410;-76
2023/01/03 07:49:34;;;;;;;;;;;8.00;99.90;;;;;;5048578;28;19917;-76
2023/01/03 07:51:59;;;;;;;;;;;8.10;99.90;;;;;;5045972;28;19995;-76
2023/01/03 07:54:24;;;;;;;;;;;8.10;99.90;;;;;;5044597;28;19932;-76
2023/01/03 07:56:50;;;;;;;;;;;8.40;99.90;;;;;;5037302;28;19916;-74
2023/01/03 07:59:16;;;;;;;;;;;8.40;99.90;;;;;;5043955;28;20050;-75
2023/01/03 08:01:41;;;;;;;;;;;8.50;99.90;;;;;;5045588;28;19908;-75
2023/01/03 08:04:06;;;;;;;;;;;8.60;99.90;;;;;;5043550;28;19975;-75
2023/01/03 08:06:32;;;;;;;;;;;8.60;99.90;;;;;;5044956;28;19920;-74
2023/01/03 08:14:26;;;;;;;;;;;8.60;99.90;;;;;;5045650;28;20023;-75
2023/01/03 08:16:52;;;;;;;;;;;8.60;99.90;;;;;;5045070;28;19964;-75
2023/01/03 08:19:17;;;;;;;;;;;8.90;99.90;;;;;;5045141;28;19917;-76
2023/01/03 08:21:43;;;;;;;;;;;8.70;99.90;;;;;;5042006;28;19972;-75
2023/01/03 08:24:08;;;;;;;;;;;8.90;99.90;;;;;;5043571;28;19920;-74
2023/01/03 08:26:34;;;;;;;;;;;8.80;99.90;;;;;;5044823;28;20255;-73
2023/01/03 08:28:59;;;;;;;;;;;8.70;99.90;;;;;;5044940;28;19920;-75
2023/01/03 08:31:27;;;;;;;;;;;8.80;99.90;;;;;;5046572;28;19913;-75
2023/01/03 08:34:03;;;;;;;;;;;9.00;99.90;;;;;;5048425;28;19962;-74
2023/01/03 08:36:32;;;;;;;;;;;8.80;99.90;;;;;;5050159;28;19919;-74
2023/01/03 08:39:01;;;;;;;;;;;9.00;99.90;;;;;;5054373;28;19909;-77
2023/01/03 08:41:28;;;;;;;;;;;9.00;99.90;;;;;;5050025;28;19913;-76
2023/01/03 08:43:54;;;;;;;;;;;8.80;99.90;;;;;;5046892;28;19912;-75
2023/01/03 08:46:20;;;;;;;;;;;9.10;99.90;;;;;;5052572;28;19948;-76
2023/01/03 08:48:46;;;;;;;;;;;9.00;99.90;;;;;;5044498;28;20511;-75
2023/01/03 08:51:11;;;;;;;;;;;9.00;99.90;;;;;;5047844;28;19916;-73
2023/01/03 08:53:37;;;;;;;;;;;9.10;99.90;;;;;;5043880;28;20376;-75
2023/01/03 08:56:02;;;;;;;;;;;9.20;99.90;;;;;;5056574;28;19963;-74
2023/01/03 08:58:28;;;;;;;;;;;9.40;99.90;;;;;;5053095;28;19912;-75
2023/01/03 09:00:53;;;;;;;;;;;9.30;99.90;;;;;;5043912;28;19924;-74
2023/01/03 09:03:19;;;;;;;;;;;9.40;99.90;;;;;;5046253;28;20010;-75
2023/01/03 09:05:44;;;;;;;;;;;9.30;99.90;;;;;;5048697;28;19999;-74
2023/01/03 09:08:10;;;;;;;;;;;9.30;99.90;;;;;;5040995;28;19975;-75
2023/01/03 09:10:35;;;;;;;;;;;9.50;99.90;;;;;;5064571;28;20608;-73
2023/01/03 09:13:01;;;;;;;;;;;9.60;99.90;;;;;;5038434;28;19956;-74
2023/01/03 09:15:27;;;;;;;;;;;9.60;99.90;;;;;;5034651;28;19955;-75
2023/01/03 09:17:52;;;;;;;;;;;9.60;99.90;;;;;;5021141;28;20651;-76
2023/01/03 09:20:18;;;;;;;;;;;9.60;99.90;;;;;;5041413;28;19943;-74
2023/01/03 09:22:43;;;;;;;;;;;9.90;99.90;;;;;;5042238;28;19991;-73
2023/01/03 09:25:09;;;;;;;;;;;10.00;99.90;;;;;;5037345;28;19913;-73
2023/01/03 09:27:34;;;;;;;;;;;9.90;99.90;;;;;;5035190;28;19983;-75
2023/01/03 09:30:00;;;;;;;;;;;9.90;99.90;;;;;;5044264;28;20059;-74
2023/01/03 09:32:26;;;;;;;;;;;10.00;99.90;;;;;;5043177;28;19917;-74
2023/01/03 09:34:52;;;;;;;;;;;10.20;99.90;;;;;;5044745;28;19924;-75
2023/01/03 09:37:17;;;;;;;;;;;10.30;99.90;;;;;;5043498;28;19916;-74
2023/01/03 09:39:42;;;;;;;;;;;10.40;99.90;;;;;;5045044;28;19957;-73
2023/01/03 09:44:57;;;;;;;;;;;10.30;99.90;;;;;;5041119;28;19975;-74
2023/01/03 09:47:24;;;;;;;;;;;10.50;99.90;;;;;;5043254;28;19909;-73
2023/01/03 09:49:50;;;;;;;;;;;10.50;99.90;;;;;;5043661;28;20451;-75
2023/01/03 10:03:47;;;;;;;;;;;11.10;99.90;;;;;;5040658;28;19920;-75
2023/01/03 10:06:15;;;;;;;;;;;11.20;99.90;;;;;;5040868;28;19913;-74
2023/01/03 10:08:43;;;;;;;;;;;11.00;99.90;;;;;;5042464;28;19916;-76
2023/01/03 10:11:24;;;;;;;;;;;11.10;99.90;;;;;;5052258;28;20012;-75
2023/01/03 10:13:55;;;;;;;;;;;11.30;99.90;;;;;;5043231;28;19917;-77
2023/01/03 10:16:35;;;;;;;;;;;11.30;99.90;;;;;;5042255;28;19970;-74
2023/01/03 10:19:12;;;;;;;;;;;11.40;99.90;;;;;;5031687;28;19913;-75
2023/01/03 10:21:47;;;;;;;;;;;11.50;99.90;;;;;;5043795;28;20000;-75
2023/01/03 10:24:23;;;;;;;;;;;11.60;99.90;;;;;;5039249;28;19943;-76
2023/01/03 10:26:54;;;;;;;;;;;11.50;99.90;;;;;;5044135;28;19975;-75
2023/01/03 10:29:19;;;;;;;;;;;11.60;99.90;;;;;;5043714;28;19933;-76
2023/01/03 10:31:48;;;;;;;;;;;11.70;99.90;;;;;;5044414;28;20003;-75
2023/01/03 10:34:13;;;;;;;;;;;11.80;99.90;;;;;;5038333;28;19954;-75
2023/01/03 10:36:39;;;;;;;;;;;11.90;99.90;;;;;;5038189;28;20430;-76
2023/01/03 10:39:06;;;;;;;;;;;11.90;99.90;;;;;;5039930;28;19947;-75
2023/01/03 10:41:40;;;;;;;;;;;11.80;99.90;;;;;;5043685;28;19909;-75
2023/01/03 10:44:06;;;;;;;;;;;12.00;99.90;;;;;;5041523;28;20379;-75
2023/01/03 10:46:31;;;;;;;;;;;11.90;99.90;;;;;;5037826;28;19952;-75
2023/01/03 10:49:16;;;;;;;;;;;12.00;99.90;;;;;;5044439;28;19921;-75
2023/01/03 10:51:54;;;;;;;;;;;12.10;99.90;;;;;;5034800;28;19920;-77
2023/01/03 10:54:25;;;;;;;;;;;11.80;99.90;;;;;;5035315;28;20012;-76
2023/01/03 10:56:51;;;;;;;;;;;11.90;99.90;;;;;;5038420;28;19909;-76
2023/01/03 10:59:29;;;;;;;;;;;11.90;99.90;;;;;;5030796;28;19920;-74
2023/01/03 11:02:06;;;;;;;;;;;11.80;99.90;;;;;;5038557;28;19966;-77
2023/01/03 11:04:32;;;;;;;;;;;11.90;99.90;;;;;;5043204;28;20524;-74
2023/01/03 11:06:57;;;;;;;;;;;11.70;99.90;;;;;;5031898;28;20000;-75
2023/01/03 11:09:24;;;;;;;;;;;11.80;99.90;;;;;;5040420;28;20356;-76
2023/01/03 11:11:58;;;;;;;;;;;11.70;99.90;;;;;;5040038;28;20000;-75
2023/01/03 11:14:25;;;;;;;;;;;11.70;99.90;;;;;;5038227;28;19910;-74
2023/01/03 11:16:57;;;;;;;;;;;11.90;99.90;;;;;;5043502;28;19913;-75
2023/01/03 11:19:25;;;;;;;;;;;11.70;99.90;;;;;;5038017;28;19909;-75
2023/01/03 11:21:53;;;;;;;;;;;11.70;99.90;;;;;;5042950;28;19955;-76
2023/01/03 11:24:41;;;;;;;;;;;11.70;99.90;;;;;;5029487;28;19912;-75
2023/01/03 11:27:21;;;;;;;;;;;11.70;99.90;;;;;;5039795;28;19917;-75
2023/01/03 11:30:05;;;;;;;;;;;11.70;99.90;;;;;;5042671;28;19956;-73
2023/01/03 11:32:39;;;;;;;;;;;11.50;99.90;;;;;;5032681;28;19919;-76
2023/01/03 11:35:16;;;;;;;;;;;11.60;99.90;;;;;;5031843;28;19913;-74
2023/01/03 11:37:44;;;;;;;;;;;11.50;99.90;;;;;;5032538;28;19913;-74
2023/01/03 11:40:28;;;;;;;;;;;11.50;99.90;;;;;;5037649;28;19912;-73
2023/01/03 11:43:12;;;;;;;;;;;11.50;99.90;;;;;;5028945;28;19913;-76
2023/01/03 11:45:46;;;;;;;;;;;11.40;99.90;;;;;;5037719;28;19917;-74
2023/01/03 11:48:30;;;;;;;;;;;11.30;99.90;;;;;;5034753;28;19924;-76
2023/01/03 11:51:00;;;;;;;;;;;11.30;99.90;;;;;;5044295;28;19917;-75
2023/01/03 11:53:29;;;;;;;;;;;11.20;99.90;;;;;;5041855;28;19944;-75
2023/01/03 11:56:05;;;;;;;;;;;11.10;99.90;;;;;;5042001;28;20429;-74
2023/01/03 11:58:53;;;;;;;;;;;11.00;99.90;;;;;;5043417;28;19913;-74
2023/01/03 12:01:22;;;;;;;;;;;11.00;99.90;;;;;;5045081;28;19924;-73
2023/01/03 12:03:56;;;;;;;;;;;11.00;99.90;;;;;;5041074;28;19927;-75
2023/01/03 12:06:30;;;;;;;;;;;10.90;99.90;;;;;;5042456;28;19994;-74
2023/01/03 12:09:15;;;;;;;;;;;10.80;99.90;;;;;;5044320;28;20007;-77
2023/01/03 12:11:59;;;;;;;;;;;10.70;99.90;;;;;;5043701;28;20458;-74
2023/01/03 12:14:29;;;;;;;;;;;10.70;99.90;;;;;;5047560;28;19964;-76
2023/01/03 12:17:05;;;;;;;;;;;10.60;99.90;;;;;;5046283;28;19913;-75
2023/01/03 12:19:45;;;;;;;;;;;10.50;99.90;;;;;;5047722;28;19923;-75
2023/01/03 12:22:34;;;;;;;;;;;10.40;99.90;;;;;;5044506;28;19920;-74
2023/01/03 12:25:17;;;;;;;;;;;10.20;99.90;;;;;;5035421;28;19963;-76
2023/01/03 12:27:55;;;;;;;;;;;10.10;99.90;;;;;;5046154;28;19913;-75
2023/01/03 12:30:39;;;;;;;;;;;10.00;99.90;;;;;;5043976;28;19917;-73
2023/01/03 12:33:31;;;;;;;;;;;9.90;99.90;;;;;;5041852;28;20401;-76
2023/01/03 12:36:01;;;;;;;;;;;9.80;99.90;;;;;;5040010;28;20168;-76
2023/01/03 12:38:33;;;;;;;;;;;9.70;99.90;;;;;;5048081;28;19920;-75
2023/01/03 12:41:08;;;;;;;;;;;9.70;99.90;;;;;;5051599;28;19941;-76
2023/01/03 12:43:37;;;;;;;;;;;9.70;99.90;;;;;;5049180;28;19908;-76
2023/01/03 12:46:03;;;;;;;;;;;9.70;99.90;;;;;;5046499;28;19917;-73
2023/01/03 12:48:44;;;;;;;;;;;9.70;99.90;;;;;;5053448;28;19916;-75
2023/01/03 12:51:10;;;;;;;;;;;9.80;99.90;;;;;;5054609;28;19912;-78
2023/01/03 12:53:45;;;;;;;;;;;9.80;99.90;;;;;;5060417;28;19925;-77
2023/01/03 12:56:11;;;;;;;;;;;9.80;99.90;;;;;;5062455;28;19900;-77
2023/01/03 12:59:06;;;;;;;;;;;9.80;99.90;;;;;;5067645;28;20002;-77
2023/01/03 13:01:52;;;;;;;;;;;9.80;99.90;;;;;;5007638;28;19941;-76
2023/01/03 13:04:30;;;;;;;;;;;9.90;99.90;;;;;;5059922;28;19905;-75
2023/01/03 13:06:58;;;;;;;;;;;10.20;99.90;;;;;;5059423;28;19913;-75
2023/01/03 13:09:30;;;;;;;;;;;10.40;99.90;;;;;;5065974;28;19912;-75
2023/01/03 13:12:02;;;;;;;;;;;10.20;99.90;;;;;;5061781;28;19960;-75
2023/01/03 13:14:28;;;;;;;;;;;10.00;99.90;;;;;;5058764;28;19897;-74
2023/01/03 13:16:53;;;;;;;;;;;10.00;99.90;;;;;;5061548;28;19971;-76
2023/01/03 13:19:20;;;;;;;;;;;10.00;99.90;;;;;;5052912;28;20129;-75
2023/01/03 13:21:48;;;;;;;;;;;9.80;99.90;;;;;;5049201;28;20370;-74
2023/01/03 13:24:33;;;;;;;;;;;9.80;99.90;;;;;;5040030;28;19963;-74
2023/01/03 13:27:17;;;;;;;;;;;9.70;99.90;;;;;;5057214;28;19909;-76
2023/01/03 13:29:44;;;;;;;;;;;9.70;99.90;;;;;;5058519;28;20005;-73
2023/01/03 13:32:14;;;;;;;;;;;9.70;99.90;;;;;;5058506;28;19952;-76
2023/01/03 13:34:39;;;;;;;;;;;9.70;99.90;;;;;;5055241;28;19939;-75
2023/01/03 13:37:05;;;;;;;;;;;9.80;99.90;;;;;;5054844;28;19909;-74
2023/01/03 13:39:37;;;;;;;;;;;9.80;99.90;;;;;;5052193;28;20596;-75
2023/01/03 13:42:02;;;;;;;;;;;9.70;99.90;;;;;;5050890;28;19909;-74
2023/01/03 13:44:28;;;;;;;;;;;9.80;99.90;;;;;;5053705;28;19909;-76
2023/01/03 13:46:53;;;;;;;;;;;9.80;99.90;;;;;;5051884;28;19913;-74
2023/01/03 13:49:20;;;;;;;;;;;9.70;99.90;;;;;;5044157;28;19917;-74
2023/01/03 13:51:48;;;;;;;;;;;9.70;99.90;;;;;;5043254;28;19927;-76
2023/01/03 13:54:13;;;;;;;;;;;9.70;99.90;;;;;;5039714;28;19983;-74
2023/01/03 13:56:42;;;;;;;;;;;9.70;99.90;;;;;;5044631;28;19916;-74
2023/01/03 13:59:13;;;;;;;;;;;9.80;99.90;;;;;;5041776;28;19948;-74
2023/01/03 14:01:57;;;;;;;;;;;9.80;99.90;;;;;;5043999;28;19913;-75
2023/01/03 14:04:23;;;;;;;;;;;9.90;99.90;;;;;;5044526;28;19945;-75
2023/01/03 14:06:54;;;;;;;;;;;9.80;99.90;;;;;;5045096;28;20671;-74
2023/01/03 14:09:45;;;;;;;;;;;9.70;99.90;;;;;;5045282;28;20070;-75
2023/01/03 14:12:26;;;;;;;;;;;9.70;99.90;;;;;;5041529;28;20235;-74
2023/01/03 14:14:53;;;;;;;;;;;9.80;99.90;;;;;;5044425;28;19924;-77
2023/01/03 14:17:22;;;;;;;;;;;9.80;99.90;;;;;;5044675;28;20450;-76
2023/01/03 14:19:53;;;;;;;;;;;9.70;99.90;;;;;;5045430;28;19981;-75
2023/01/03 14:22:21;;;;;;;;;;;9.60;99.90;;;;;;5043823;28;19966;-76
2023/01/03 14:24:51;;;;;;;;;;;9.60;99.90;;;;;;5045453;28;19908;-74
2023/01/03 14:27:18;;;;;;;;;;;9.60;99.90;;;;;;5045269;28;19909;-75
2023/01/03 14:29:47;;;;;;;;;;;9.60;99.90;;;;;;5047268;28;20062;-75
2023/01/03 14:32:20;;;;;;;;;;;9.60;99.90;;;;;;5067785;28;19932;-77
2023/01/03 14:34:45;;;;;;;;;;;9.60;99.90;;;;;;5064461;28;19917;-77
2023/01/03 14:37:12;;;;;;;;;;;9.60;99.90;;;;;;5061584;28;19955;-74
2023/01/03 14:39:37;;;;;;;;;;;9.60;99.90;;;;;;5059950;28;19939;-73
2023/01/03 14:42:04;;;;;;;;;;;9.50;99.90;;;;;;5050332;28;20008;-75
2023/01/03 14:44:30;;;;;;;;;;;9.50;99.90;;;;;;5049196;28;19940;-74
2023/01/03 14:46:57;;;;;;;;;;;9.50;99.90;;;;;;5044294;28;20704;-75
2023/01/03 14:49:29;;;;;;;;;;;9.40;99.90;;;;;;5045193;28;19948;-75
2023/01/03 14:52:02;;;;;;;;;;;9.50;99.90;;;;;;5045676;28;19909;-75
2023/01/03 14:54:27;;;;;;;;;;;9.40;99.90;;;;;;5046379;28;19913;-75
2023/01/03 14:56:53;;;;;;;;;;;9.40;99.90;;;;;;5042937;28;19920;-73
2023/01/03 14:59:20;;;;;;;;;;;9.40;99.90;;;;;;5043612;28;20723;-74
2023/01/03 15:01:46;;;;;;;;;;;9.30;99.90;;;;;;5044875;28;19935;-74
2023/01/03 15:04:13;;;;;;;;;;;9.30;99.90;;;;;;5042445;28;20398;-73
2023/01/03 15:06:53;;;;;;;;;;;9.40;99.90;;;;;;5041535;28;19909;-73
2023/01/03 15:09:21;;;;;;;;;;;9.40;99.90;;;;;;5043001;28;19920;-75
2023/01/03 15:12:06;;;;;;;;;;;9.30;99.90;;;;;;5044801;28;19912;-75
2023/01/03 15:14:33;;;;;;;;;;;9.20;99.90;;;;;;5043378;28;20002;-72
2023/01/03 15:17:10;;;;;;;;;;;9.20;99.90;;;;;;5044903;28;19944;-76
2023/01/03 15:19:44;;;;;;;;;;;9.20;99.90;;;;;;5043281;28;19908;-73
2023/01/03 15:22:14;;;;;;;;;;;9.20;99.90;;;;;;5042163;28;19935;-77
2023/01/03 15:24:42;;;;;;;;;;;9.20;99.90;;;;;;5039915;28;19984;-74
2023/01/03 15:27:26;;;;;;;;;;;9.30;99.90;;;;;;5043545;28;19919;-76
2023/01/03 15:29:51;;;;;;;;;;;9.20;99.90;;;;;;5031513;28;19920;-77
2023/01/03 15:32:17;;;;;;;;;;;9.20;99.90;;;;;;5043556;28;19913;-74
2023/01/03 15:34:43;;;;;;;;;;;9.20;99.90;;;;;;5043833;28;19913;-73
2023/01/03 15:37:14;;;;;;;;;;;9.10;99.90;;;;;;5037039;28;20547;-74
2023/01/03 15:39:49;;;;;;;;;;;9.10;99.90;;;;;;5043936;28;19908;-77
2023/01/03 15:45:24;;;;;;;;;;;9.10;99.90;;;;;;5045557;28;20612;-76